Terminal Aerodrome Forecast
Issued by NWS

Home | Current Version | Previous Version | Text Only | Print | Product List | Glossary On
Versions: 1 2 3 4 5 6 7 8 9 10 11 12 13 14 15 16 17 18 19 20 21 22 23 24 25 26 27 28 29 30 31 32
415
FTUS43 KDMX 191137
TAFOTM
TAF
KOTM 191137Z 1912/2012 VRB03KT P6SM SCT035
     FM191900 26008KT P6SM SCT080
     FM200200 VRB02KT P6SM SKC
     FM201100 VRB04KT 5SM BR BKN250=

USA.gov is the U.S. government's official web portal to all federal, state and local government web resources and services.